createdAt,value
2023-05-05T00:06:07.373Z,38.53511705685619
2023-05-05T00:18:11.654Z,44.01672240802676
2023-05-05T00:24:32.705Z,39.1438127090301
2023-05-05T00:33:51.291Z,40.046822742474916
2023-05-05T00:55:40.289Z,41.27759197324415
2023-05-05T01:02:02.742Z,33.8561872909699
2023-05-05T01:08:25.268Z,33.30769230769231
2023-05-05T01:14:47.515Z,34.876254180602004
2023-05-05T01:21:08.191Z,34.51839464882943
2023-05-05T01:27:29.006Z,38.280936454849495
2023-05-05T01:33:49.137Z,42.468227424749166
2023-05-05T01:51:14.779Z,34.03344481605351
2023-05-05T02:04:25.783Z,34.8561872909699
2023-05-05T02:10:48.815Z,39.046822742474916
2023-05-05T02:23:12.069Z,33.30434782608695
2023-05-05T02:36:30.613Z,31.765886287625417
2023-05-05T02:42:51.127Z,37.07357859531773
2023-05-05T02:49:12.081Z,34.66555183946488
2023-05-05T02:57:26.019Z,35.82943143812709
2023-05-05T03:03:49.317Z,41.27090301003344
2023-05-05T03:10:11.664Z,34.070234113712374
2023-05-05T03:16:31.645Z,35.812709030100336
2023-05-05T03:22:52.517Z,40.74247491638796
2023-05-05T03:29:14.230Z,40.11036789297659
2023-05-05T03:35:33.642Z,43.802675585284284
2023-05-05T03:41:54.767Z,39.52842809364549
2023-05-05T03:52:29.454Z,45.49498327759197
2023-05-05T03:58:51.970Z,41.41137123745819
2023-05-05T04:05:13.185Z,40.92307692307692
2023-05-05T04:11:43.665Z,43.541806020066886
2023-05-05T04:18:06.167Z,44.27759197324415
2023-05-05T04:24:29.466Z,44.5819397993311
2023-05-05T04:30:52.154Z,43.51170568561873
2023-05-05T04:37:15.424Z,46.130434782608695
2023-05-05T04:43:37.909Z,46.36120401337793
2023-05-05T04:53:11.376Z,45.17056856187291
2023-05-05T04:59:37.146Z,48.381270903010034
2023-05-05T05:06:10.093Z,44.290969899665555
2023-05-05T05:17:34.559Z,44.37123745819398
2023-05-05T05:24:21.144Z,49.919732441471574
2023-05-05T05:30:42.936Z,47.919732441471574
2023-05-05T05:37:04.538Z,52.66555183946488
2023-05-05T05:43:26.149Z,51.23745819397993
2023-05-05T05:49:47.650Z,50.64882943143812
2023-05-05T05:56:09.789Z,48.31772575250836
2023-05-05T06:02:31.766Z,53.508361204013376
2023-05-05T06:10:26.611Z,54.752508361204015
2023-05-05T06:18:15.392Z,45.66220735785953
2023-05-05T06:24:37.595Z,53.30434782608695
2023-05-05T06:31:46.401Z,49.60535117056856
2023-05-05T06:39:19.942Z,48.11036789297659
2023-05-05T06:45:43.875Z,51.070234113712374
2023-05-05T06:52:06.018Z,50.41137123745819
2023-05-05T06:58:28.579Z,50.17391304347826
2023-05-05T07:04:59.098Z,49.48160535117057
2023-05-05T07:11:21.297Z,51.448160535117054
2023-05-05T07:17:43.733Z,56.381270903010034
2023-05-05T07:24:05.876Z,47.561872909699
2023-05-05T07:30:28.220Z,58.525083612040135
2023-05-05T07:36:49.891Z,50.525083612040135
2023-05-05T07:49:02.973Z,60.64548494983278
2023-05-05T07:55:24.433Z,61.88963210702341
2023-05-05T08:01:46.041Z,66.51839464882943
2023-05-05T08:08:07.376Z,68.66555183946488
2023-05-05T08:14:28.382Z,62.896321070234116
2023-05-05T08:20:49.696Z,65.89966555183946
2023-05-05T08:27:11.741Z,71.4113712374582
2023-05-05T08:33:33.019Z,69.59531772575251
2023-05-05T08:39:53.754Z,63.7056856187291
2023-05-05T08:53:47.255Z,63.53846153846154
2023-05-05T09:00:09.442Z,66.27424749163879
2023-05-05T09:07:22.372Z,68.8361204013378
2023-05-05T09:14:50.487Z,66.20066889632108
2023-05-05T09:21:12.291Z,68.60535117056857
2023-05-05T09:27:33.484Z,70.47491638795987
2023-05-05T09:33:58.532Z,73.48829431438126
2023-05-05T09:42:34.521Z,83.89966555183946
2023-05-05T09:48:57.102Z,85.70903010033445
2023-05-05T09:55:19.993Z,93.28428093645485
2023-05-05T10:01:42.678Z,91.96321070234114
2023-05-05T10:08:05.620Z,72.39464882943143
2023-05-05T10:21:44.504Z,77.4648829431438
2023-05-05T10:32:40.654Z,74.17391304347827
2023-05-05T10:39:12.776Z,59.220735785953174
2023-05-05T10:45:35.705Z,60.19063545150502
2023-05-05T10:51:58.182Z,70.09364548494983
2023-05-05T10:58:21.068Z,67.42809364548495
2023-05-05T11:04:43.982Z,65.03344481605352
2023-05-05T11:11:06.803Z,68.58528428093645
2023-05-05T11:26:14.666Z,72.7190635451505
2023-05-05T11:35:15.830Z,73.26086956521739
2023-05-05T11:41:38.691Z,79.67224080267559
2023-05-05T11:51:28.512Z,78.15050167224081
2023-05-05T11:57:52.555Z,86.73913043478261
2023-05-05T12:04:15.468Z,86.54180602006689
2023-05-05T12:28:34.344Z,94.67892976588628
2023-05-05T12:34:57.155Z,103.46822742474916
2023-05-05T12:41:21.150Z,108.82943143812709
2023-05-05T12:47:44.524Z,98.5685618729097
2023-05-05T12:54:06.662Z,96.09030100334448
2023-05-05T13:03:16.080Z,102.20735785953177
2023-05-05T13:13:15.917Z,99.27759197324414
2023-05-05T13:19:40.026Z,105.38127090301003
2023-05-05T13:29:02.214Z,101.89966555183946
2023-05-05T13:41:07.875Z,110.95317725752508
2023-05-05T13:47:31.352Z,114.44816053511705
2023-05-05T13:53:54.540Z,104.17725752508362
2023-05-05T14:07:48.365Z,109.53177257525084
2023-05-05T14:14:13.691Z,103.7324414715719
2023-05-05T14:20:36.624Z,119.2675585284281
2023-05-05T14:28:03.922Z,113.66889632107024
2023-05-05T14:34:30.420Z,109.74916387959867
2023-05-05T14:44:56.688Z,122.79264214046823
2023-05-05T14:51:20.303Z,119.62541806020067
2023-05-05T15:05:18.552Z,108.38127090301003
2023-05-05T15:11:40.803Z,106.22073578595318
2023-05-05T15:18:55.335Z,86.62876254180603
2023-05-05T15:25:17.947Z,84.43812709030101
2023-05-05T15:31:40.233Z,81.94648829431438
2023-05-05T15:38:02.799Z,90.71571906354515
2023-05-05T15:44:24.975Z,81.02675585284281
2023-05-05T15:50:47.155Z,69.59197324414716
2023-05-05T15:57:09.859Z,71.07023411371237
2023-05-05T16:08:05.947Z,75.7324414715719
2023-05-05T16:14:28.372Z,66.97324414715719
2023-05-05T16:22:12.890Z,77.8695652173913
2023-05-05T16:28:35.182Z,76.70903010033445
2023-05-05T16:34:57.715Z,71.90301003344482
2023-05-05T16:41:20.031Z,94.17725752508362
2023-05-05T16:47:39.323Z,94.58193979933111
2023-05-05T16:58:31.597Z,104.39464882943143
2023-05-05T17:04:50.641Z,120.11371237458194
2023-05-05T17:11:11.499Z,145.87959866220737
2023-05-05T17:17:31.587Z,173.09364548494983
2023-05-05T17:23:53.579Z,183.43478260869566
2023-05-05T17:30:14.723Z,201.05016722408027
2023-05-05T17:36:36.302Z,208.19732441471572
2023-05-05T17:42:57.905Z,215.02006688963212
2023-05-05T17:51:16.329Z,216.90301003344482
2023-05-05T17:57:41.769Z,214.54849498327758
2023-05-05T18:07:22.679Z,219.9598662207358
2023-05-05T18:13:43.105Z,220.45150501672242
2023-05-05T18:21:41.347Z,148.35117056856188
2023-05-05T18:28:00.389Z,93.64548494983278
2023-05-05T18:35:44.108Z,122.47157190635451
2023-05-05T18:44:56.016Z,160.8628762541806
2023-05-05T18:52:02.260Z,159.685618729097
2023-05-05T18:58:21.684Z,182.8896321070234
2023-05-05T19:05:10.564Z,210.82608695652175
2023-05-05T19:11:30.288Z,242.33779264214047
2023-05-05T19:28:39.070Z,194.56521739130434
2023-05-05T19:42:18.814Z,154.77257525083613
2023-05-05T19:50:55.421Z,113.94983277591973
2023-05-05T19:57:14.834Z,138.14046822742475
2023-05-05T20:03:33.802Z,116.40133779264214
2023-05-05T20:09:53.002Z,79.59531772575251
2023-05-05T20:16:12.149Z,76.18394648829431
2023-05-05T20:27:35.973Z,74.90635451505017
2023-05-05T20:33:56.121Z,77.92976588628763
2023-05-05T20:40:15.121Z,59.852842809364546
2023-05-05T20:50:51.482Z,77.90635451505017
2023-05-05T21:04:24.110Z,80.84949832775919
2023-05-05T21:10:43.113Z,87.61872909698997
2023-05-05T21:18:12.257Z,100.28428093645485
2023-05-05T21:28:07.421Z,101.49163879598662
2023-05-05T21:34:26.590Z,99.2809364548495
2023-05-05T21:45:16.720Z,121.38795986622074
2023-05-05T22:00:17.048Z,123.53177257525084
2023-05-05T22:06:35.346Z,128.51839464882943
2023-05-05T22:14:43.153Z,147.22408026755852
2023-05-05T22:21:01.968Z,144.96321070234114
2023-05-05T22:27:20.299Z,146.0
2023-05-05T22:34:05.405Z,154.59866220735785
2023-05-05T22:40:42.206Z,167.16053511705687
2023-05-05T22:47:01.518Z,164.87959866220737
2023-05-05T22:53:21.869Z,176.20401337792643
2023-05-05T23:04:18.441Z,198.94314381270902
2023-05-05T23:10:37.936Z,191.57859531772576
2023-05-05T23:18:42.059Z,183.40802675585283
2023-05-05T23:34:48.199Z,182.3913043478261
2023-05-05T23:41:07.912Z,193.1103678929766
2023-05-05T23:47:29.890Z,204.76254180602007
2023-05-05T23:53:48.640Z,225.74916387959865
